createdAt,value
2019-01-12T00:01:27.283Z,12.00
2019-01-12T00:03:56.448Z,12.67
2019-01-12T00:06:27.224Z,14.00
2019-01-12T00:08:57.482Z,10.00
2019-01-12T00:11:27.751Z,21.67
2019-01-12T00:13:57.999Z,12.00
2019-01-12T00:16:28.730Z,14.00
2019-01-12T00:18:59.187Z,14.00
2019-01-12T00:21:29.524Z,15.33
2019-01-12T00:23:59.804Z,12.00
2019-01-12T00:26:30.044Z,11.33
2019-01-12T00:29:01.548Z,16.00
2019-01-12T00:31:31.895Z,11.33
2019-01-12T00:34:03.558Z,17.00
2019-01-12T00:36:33.969Z,12.00
2019-01-12T00:39:05.126Z,11.33
2019-01-12T00:41:38.344Z,15.33
2019-01-12T00:44:09.345Z,15.33
2019-01-12T00:46:40.563Z,16.50
2019-01-12T00:49:12.781Z,15.67
2019-01-12T00:51:45.344Z,11.33
2019-01-12T00:54:17.171Z,14.67
2019-01-12T00:56:47.744Z,12.00
2019-01-12T00:59:18.034Z,13.67
2019-01-12T01:01:48.408Z,13.33
2019-01-12T01:04:18.647Z,12.00
2019-01-12T01:06:49.009Z,14.67
2019-01-12T01:09:19.190Z,12.00
2019-01-12T01:11:51.145Z,13.33
2019-01-12T01:14:21.548Z,13.33
2019-01-12T01:16:52.265Z,13.33
2019-01-12T01:19:24.787Z,12.00
2019-01-12T01:21:55.435Z,14.00
2019-01-12T01:24:27.931Z,10.67
2019-01-12T01:26:58.179Z,13.33
2019-01-12T01:29:28.442Z,11.33
2019-01-12T01:31:59.499Z,16.00
2019-01-12T01:34:29.871Z,12.67
2019-01-12T01:37:02.455Z,12.00
2019-01-12T01:39:32.787Z,12.00
2019-01-12T01:42:03.440Z,12.00
2019-01-12T01:44:33.627Z,8.00
2019-01-12T01:47:04.001Z,11.33
2019-01-12T01:49:34.631Z,11.33
2019-01-12T01:52:04.830Z,8.67
2019-01-12T01:54:35.144Z,12.00
2019-01-12T01:57:07.851Z,11.33
2019-01-12T01:59:42.270Z,11.33
2019-01-12T02:02:13.972Z,14.00
2019-01-12T02:04:45.095Z,10.67
2019-01-12T02:07:15.964Z,14.67
2019-01-12T02:09:47.029Z,12.00
2019-01-12T02:12:17.804Z,10.67
2019-01-12T02:14:48.151Z,10.67
2019-01-12T02:17:18.505Z,13.33
2019-01-12T02:19:49.162Z,10.67
2019-01-12T02:22:20.213Z,16.00
2019-01-12T02:24:50.503Z,12.00
2019-01-12T02:27:21.168Z,12.00
2019-01-12T02:29:51.405Z,14.00
2019-01-12T02:32:21.752Z,10.67
2019-01-12T02:34:52.371Z,12.00
2019-01-12T02:37:24.819Z,12.00
2019-01-12T02:39:57.674Z,10.00
2019-01-12T02:42:28.834Z,12.00
2019-01-12T02:44:59.045Z,9.33
2019-01-12T02:47:30.683Z,16.00
2019-01-12T02:50:01.657Z,12.00
2019-01-12T02:52:31.894Z,10.67
2019-01-12T02:55:08.555Z,14.00
2019-01-12T02:57:35.309Z,15.33
2019-01-12T03:00:10.316Z,14.00
2019-01-12T03:02:40.915Z,12.00
2019-01-12T03:05:11.217Z,14.00
2019-01-12T03:07:41.720Z,10.67
2019-01-12T03:10:16.927Z,11.33
2019-01-12T03:12:47.573Z,13.33
2019-01-12T03:15:19.258Z,12.00
2019-01-12T03:17:49.542Z,13.33
2019-01-12T03:20:19.982Z,15.33
2019-01-12T03:22:50.494Z,11.33
2019-01-12T03:25:20.821Z,12.00
2019-01-12T03:27:51.127Z,14.67
2019-01-12T03:30:24.377Z,12.67
2019-01-12T03:32:55.312Z,10.67
2019-01-12T03:35:25.679Z,15.33
2019-01-12T03:37:56.679Z,13.33
2019-01-12T03:40:26.966Z,10.00
2019-01-12T03:42:58.739Z,14.67
2019-01-12T03:45:29.090Z,14.67
2019-01-12T03:48:00.133Z,17.00
2019-01-12T03:50:32.740Z,14.67
2019-01-12T03:53:02.979Z,14.00
2019-01-12T03:55:33.253Z,12.67
2019-01-12T03:58:03.501Z,12.00
2019-01-12T04:00:33.848Z,10.67
2019-01-12T04:03:10.280Z,10.67
2019-01-12T04:05:40.538Z,12.00
2019-01-12T04:08:10.726Z,10.00
2019-01-12T04:10:40.964Z,11.33
2019-01-12T04:13:11.153Z,10.00
2019-01-12T04:15:41.374Z,12.00
2019-01-12T04:18:11.652Z,12.67
2019-01-12T04:20:42.098Z,12.00
2019-01-12T04:23:12.668Z,12.67
2019-01-12T04:25:42.913Z,8.67
2019-01-12T04:28:13.164Z,8.67
2019-01-12T04:30:43.429Z,12.67
2019-01-12T04:33:13.708Z,10.67
2019-01-12T04:35:44.021Z,9.33
2019-01-12T04:38:17.409Z,11.33
2019-01-12T04:40:48.327Z,12.00
2019-01-12T04:43:18.565Z,12.00
2019-01-12T04:45:50.914Z,9.33
2019-01-12T04:48:21.140Z,12.67
2019-01-12T04:50:51.409Z,10.00
2019-01-12T04:53:21.772Z,12.00
2019-01-12T04:55:52.059Z,7.67
2019-01-12T04:58:24.982Z,7.67
2019-01-12T05:00:55.141Z,10.67
2019-01-12T05:03:25.345Z,7.67
2019-01-12T05:05:55.546Z,9.33
2019-01-12T05:08:28.613Z,5.67
2019-01-12T05:11:03.143Z,7.67
2019-01-12T05:13:33.352Z,4.67
2019-01-12T05:16:04.731Z,8.00
2019-01-12T05:18:35.070Z,5.33
2019-01-12T05:21:05.297Z,8.67
2019-01-12T05:23:35.579Z,6.00
2019-01-12T05:26:05.858Z,8.00
2019-01-12T05:28:37.869Z,10.00
2019-01-12T05:31:08.052Z,4.67
2019-01-12T05:33:39.250Z,6.67
2019-01-12T05:36:09.543Z,7.00
2019-01-12T05:38:39.721Z,7.67
2019-01-12T05:41:09.908Z,5.67
2019-01-12T05:43:40.236Z,6.33
2019-01-12T05:46:11.328Z,5.33
2019-01-12T05:48:42.771Z,5.33
2019-01-12T05:51:12.981Z,7.00
2019-01-12T05:53:43.241Z,7.67
2019-01-12T05:56:13.825Z,3.67
2019-01-12T05:58:44.025Z,5.67
2019-01-12T06:01:15.107Z,3.33
2019-01-12T06:03:46.478Z,3.33
2019-01-12T06:06:16.774Z,3.67
2019-01-12T06:08:48.660Z,4.25
2019-01-12T06:11:20.183Z,4.00
2019-01-12T06:13:52.136Z,3.75
2019-01-12T06:16:22.430Z,3.67
2019-01-12T06:18:53.553Z,4.00
2019-01-12T06:21:24.741Z,1.33
2019-01-12T06:23:56.160Z,7.33
2019-01-12T06:26:27.203Z,5.33
2019-01-12T06:29:01.080Z,6.00
2019-01-12T06:31:31.324Z,6.00
2019-01-12T06:34:07.476Z,6.00
2019-01-12T06:36:38.968Z,6.00
2019-01-12T06:39:12.391Z,4.00
2019-01-12T06:41:44.314Z,4.00
2019-01-12T06:44:16.547Z,6.00
2019-01-12T06:46:48.190Z,4.00
2019-01-12T06:49:21.257Z,3.33
2019-01-12T06:51:53.585Z,4.00
2019-01-12T06:54:24.609Z,4.00
2019-01-12T06:56:55.661Z,3.33
2019-01-12T06:59:26.101Z,3.00
2019-01-12T07:01:58.996Z,3.00
2019-01-12T07:04:32.558Z,3.25
2019-01-12T07:07:03.731Z,4.00
2019-01-12T07:09:37.685Z,4.00
2019-01-12T07:12:09.306Z,4.00
2019-01-12T07:14:40.492Z,3.33
2019-01-12T07:17:11.661Z,3.33
2019-01-12T07:19:43.117Z,1.33
2019-01-12T07:22:14.361Z,1.33
2019-01-12T07:24:45.477Z,3.33
2019-01-12T07:27:17.675Z,3.25
2019-01-12T07:29:48.336Z,3.67
2019-01-12T07:32:20.728Z,3.33
2019-01-12T07:34:52.201Z,1.33
2019-01-12T07:37:23.317Z,0.00
2019-01-12T07:39:55.509Z,2.20
2019-01-12T07:42:26.986Z,2.00
2019-01-12T07:44:58.131Z,1.00
2019-01-12T07:47:29.349Z,3.00
2019-01-12T07:50:00.550Z,1.33
2019-01-12T07:52:31.727Z,0.00
2019-01-12T07:55:04.039Z,1.40
2019-01-12T07:57:36.928Z,1.00
2019-01-12T08:00:18.774Z,2.00
2019-01-12T08:02:51.415Z,0.80
2019-01-12T08:05:23.386Z,1.33
2019-01-12T08:07:54.481Z,0.00
2019-01-12T08:10:27.082Z,1.33
2019-01-12T08:12:58.331Z,0.00
2019-01-12T08:15:31.615Z,1.33
2019-01-12T08:18:06.344Z,1.33
2019-01-12T08:20:38.238Z,1.25
2019-01-12T08:23:10.247Z,1.40
2019-01-12T08:25:41.419Z,0.00
2019-01-12T08:28:12.559Z,1.33
2019-01-12T08:30:44.877Z,1.40
2019-01-12T08:33:16.857Z,0.00
2019-01-12T08:35:50.397Z,1.20
2019-01-12T08:38:22.079Z,1.33
2019-01-12T08:40:53.249Z,1.33
2019-01-12T08:43:27.152Z,1.33
2019-01-12T08:45:59.127Z,2.00
2019-01-12T08:48:30.327Z,2.67
2019-01-12T08:51:02.289Z,4.00
2019-01-12T08:53:33.448Z,2.00
2019-01-12T08:56:04.594Z,2.00
2019-01-12T08:58:35.860Z,2.00
2019-01-12T09:01:08.155Z,0.00
2019-01-12T09:03:39.307Z,2.00
2019-01-12T09:06:10.436Z,3.33
2019-01-12T09:08:43.967Z,2.00
2019-01-12T09:11:15.106Z,0.67
2019-01-12T09:13:47.169Z,1.20
2019-01-12T09:16:20.862Z,2.00
2019-01-12T09:18:55.002Z,2.00
2019-01-12T09:21:26.162Z,0.00
2019-01-12T09:24:00.696Z,2.00
2019-01-12T09:26:33.513Z,1.60
2019-01-12T09:29:04.650Z,2.00
2019-01-12T09:31:36.995Z,2.00
2019-01-12T09:34:09.011Z,2.00
2019-01-12T09:36:41.438Z,2.00
2019-01-12T09:39:12.633Z,0.00
2019-01-12T09:41:43.762Z,2.00
2019-01-12T09:44:15.832Z,1.80
2019-01-12T09:46:49.392Z,1.33
2019-01-12T09:49:20.844Z,3.33
2019-01-12T09:51:51.989Z,1.33
2019-01-12T09:54:22.174Z,3.67
2019-01-12T09:56:54.697Z,2.00
2019-01-12T09:59:29.955Z,1.40
2019-01-12T10:02:01.558Z,2.00
2019-01-12T10:04:33.456Z,4.00
2019-01-12T10:07:05.684Z,3.60
2019-01-12T10:09:36.832Z,4.00
2019-01-12T10:12:16.098Z,3.33
2019-01-12T10:14:51.840Z,2.00
2019-01-12T10:17:25.208Z,2.67
2019-01-12T10:19:56.406Z,2.00
2019-01-12T10:22:28.673Z,4.00
2019-01-12T10:24:59.993Z,3.33
2019-01-12T10:27:33.425Z,2.00
2019-01-12T10:30:09.268Z,4.50
2019-01-12T10:32:40.406Z,3.33
2019-01-12T10:35:12.432Z,2.40
2019-01-12T10:37:46.345Z,4.80
2019-01-12T10:40:17.558Z,3.33
2019-01-12T10:42:51.589Z,2.00
2019-01-12T10:45:28.518Z,4.00
2019-01-12T10:48:17.149Z,4.00
2019-01-12T10:51:19.623Z,2.00
2019-01-12T10:53:58.935Z,4.33
2019-01-12T10:56:36.180Z,2.00
2019-01-12T10:59:18.304Z,2.00
2019-01-12T11:02:11.535Z,4.00
2019-01-12T11:04:43.940Z,4.00
2019-01-12T11:07:19.899Z,3.33
2019-01-12T11:09:53.821Z,8.00
2019-01-12T11:12:35.903Z,6.00
2019-01-12T11:15:27.978Z,6.67
2019-01-12T11:18:14.111Z,5.00
2019-01-12T11:20:50.871Z,6.00
2019-01-12T11:23:22.436Z,8.67
2019-01-12T11:25:53.826Z,8.00
2019-01-12T11:28:34.658Z,8.00
2019-01-12T11:31:11.832Z,8.00
2019-01-12T11:33:44.634Z,10.00
2019-01-12T11:36:16.639Z,8.00
2019-01-12T11:38:46.946Z,6.00
2019-01-12T11:41:17.149Z,6.00
2019-01-12T11:43:47.363Z,6.00
2019-01-12T11:46:19.453Z,8.67
2019-01-12T11:48:49.978Z,8.00
2019-01-12T11:51:25.272Z,9.33
2019-01-12T11:53:58.363Z,6.67
2019-01-12T11:56:30.264Z,7.33
2019-01-12T11:59:04.541Z,9.33
2019-01-12T12:01:35.664Z,10.67
2019-01-12T12:04:05.876Z,6.00
2019-01-12T12:06:38.722Z,8.00
2019-01-12T12:09:09.756Z,10.67
2019-01-12T12:11:39.939Z,6.00
2019-01-12T12:14:13.223Z,8.67
2019-01-12T12:16:43.444Z,12.00
2019-01-12T12:19:15.511Z,14.67
2019-01-12T12:21:45.752Z,12.00
2019-01-12T12:24:16.033Z,12.00
2019-01-12T12:26:47.772Z,9.33
2019-01-12T12:29:18.020Z,9.33
2019-01-12T12:31:48.259Z,7.33
2019-01-12T12:34:21.210Z,8.67
2019-01-12T12:36:51.377Z,12.00
2019-01-12T12:39:21.937Z,8.00
2019-01-12T12:41:52.095Z,8.00
2019-01-12T12:44:22.395Z,9.33
2019-01-12T12:46:52.950Z,13.33
2019-01-12T12:49:27.206Z,9.50
2019-01-12T12:51:58.389Z,10.00
2019-01-12T12:54:28.717Z,10.00
2019-01-12T12:56:58.844Z,7.33
2019-01-12T12:59:29.343Z,8.67
2019-01-12T13:01:59.567Z,10.67
2019-01-12T13:04:31.384Z,9.33
2019-01-12T13:07:01.983Z,10.67
2019-01-12T13:09:32.141Z,10.00
2019-01-12T13:12:07.935Z,10.00
2019-01-12T13:14:52.126Z,10.00
2019-01-12T13:17:22.393Z,12.67
2019-01-12T13:19:52.989Z,12.00
2019-01-12T13:22:24.054Z,12.50
2019-01-12T13:24:54.373Z,14.00
2019-01-12T13:27:24.910Z,14.00
2019-01-12T13:29:56.096Z,17.00
2019-01-12T13:32:26.373Z,14.00
2019-01-12T13:34:56.636Z,11.33
2019-01-12T13:37:26.826Z,10.00
2019-01-12T13:39:57.616Z,12.00
2019-01-12T13:42:27.884Z,12.67
2019-01-12T13:44:58.314Z,13.33
2019-01-12T13:47:28.758Z,10.00
2019-01-12T13:50:01.586Z,11.33
2019-01-12T13:52:35.345Z,12.00
2019-01-12T13:55:07.607Z,10.00
2019-01-12T13:57:37.827Z,12.00
2019-01-12T14:00:14.847Z,14.67
2019-01-12T14:02:45.098Z,14.67
2019-01-12T14:05:18.136Z,14.00
2019-01-12T14:07:56.605Z,10.00
2019-01-12T14:10:24.524Z,12.00
2019-01-12T14:12:54.984Z,11.33
2019-01-12T14:15:31.237Z,11.33
2019-01-12T14:18:14.159Z,14.00
2019-01-12T14:20:49.272Z,12.00
2019-01-12T14:23:23.321Z,10.67
2019-01-12T14:25:53.595Z,10.67
2019-01-12T14:28:23.897Z,10.67
2019-01-12T14:31:08.285Z,10.67
2019-01-12T14:33:38.454Z,10.00
2019-01-12T14:36:12.126Z,9.33
2019-01-12T14:38:42.469Z,12.67
2019-01-12T14:41:15.809Z,13.33
2019-01-12T14:43:46.168Z,14.00
2019-01-12T14:46:20.059Z,14.33
2019-01-12T14:48:53.419Z,12.00
2019-01-12T14:51:23.616Z,11.67
2019-01-12T14:53:53.887Z,9.67
2019-01-12T14:56:34.959Z,9.67
2019-01-12T14:59:23.445Z,12.67
2019-01-12T15:01:56.195Z,10.00
2019-01-12T15:04:35.293Z,10.67
2019-01-12T15:07:13.284Z,9.33
2019-01-12T15:09:47.519Z,12.67
2019-01-12T15:12:28.219Z,11.33
2019-01-12T15:15:04.743Z,11.33
2019-01-12T15:17:38.450Z,16.00
2019-01-12T15:20:11.482Z,11.33
2019-01-12T15:22:43.214Z,14.00
2019-01-12T15:25:14.091Z,14.00
2019-01-12T15:27:45.502Z,12.00
2019-01-12T15:30:39.543Z,14.00
2019-01-12T15:33:14.144Z,12.00
2019-01-12T15:35:49.211Z,10.33
2019-01-12T15:38:24.228Z,13.00
2019-01-12T15:40:58.644Z,13.67
2019-01-12T15:43:40.840Z,11.67
2019-01-12T15:46:13.167Z,9.67
2019-01-12T15:48:48.033Z,10.33
2019-01-12T15:51:24.126Z,12.33
2019-01-12T15:54:01.338Z,12.33
2019-01-12T15:56:37.733Z,11.67
2019-01-12T16:02:01.969Z,19.33
2019-01-12T16:07:34.883Z,18.67
2019-01-12T16:13:47.241Z,13.67
2019-01-12T16:16:53.854Z,16.33
2019-01-12T16:19:49.030Z,16.00
2019-01-12T16:22:21.413Z,11.67
2019-01-12T16:27:48.513Z,14.33
2019-01-12T16:34:04.068Z,12.67
2019-01-12T16:39:54.521Z,12.00
2019-01-12T16:42:59.830Z,9.67
2019-01-12T16:45:44.242Z,22.00
2019-01-12T16:51:37.352Z,9.33
2019-01-12T16:54:09.426Z,11.00
2019-01-12T16:56:39.641Z,10.67
2019-01-12T17:00:01.064Z,10.33
2019-01-12T17:05:43.068Z,10.00
2019-01-12T17:08:14.199Z,10.00
2019-01-12T17:10:44.371Z,10.67
2019-01-12T17:13:14.656Z,10.67
2019-01-12T17:15:53.596Z,10.00
2019-01-12T17:21:25.073Z,8.00
2019-01-12T17:26:48.615Z,8.00
2019-01-12T17:29:18.789Z,8.00
2019-01-12T17:32:09.785Z,9.00
2019-01-12T17:34:40.003Z,8.00
2019-01-12T17:37:29.755Z,9.33
2019-01-12T17:40:18.999Z,8.00
2019-01-12T17:42:49.212Z,8.00
2019-01-12T17:48:04.843Z,6.67
2019-01-12T17:53:27.979Z,11.33
2019-01-12T17:55:59.961Z,5.00
2019-01-12T17:58:31.194Z,6.00
2019-01-12T18:01:01.401Z,4.67
2019-01-12T18:03:32.565Z,6.67
2019-01-12T18:09:32.694Z,5.33
2019-01-12T18:12:03.821Z,4.00
2019-01-12T18:14:53.656Z,2.67
2019-01-12T18:17:54.428Z,8.00
2019-01-12T18:20:45.390Z,8.50
2019-01-12T18:23:35.151Z,6.00
2019-01-12T18:26:26.126Z,6.00
2019-01-12T18:28:56.313Z,6.00
2019-01-12T18:31:27.468Z,4.00
2019-01-12T18:34:17.492Z,7.33
2019-01-12T18:39:51.166Z,8.00
2019-01-12T18:42:21.374Z,6.00
2019-01-12T18:44:51.510Z,10.00
2019-01-12T18:47:44.225Z,6.00
2019-01-12T18:50:39.851Z,8.67
2019-01-12T18:53:29.118Z,8.00
2019-01-12T19:00:00.430Z,10.67
2019-01-12T19:02:50.391Z,6.00
2019-01-12T19:06:03.074Z,6.67
2019-01-12T19:12:25.711Z,3.67
2019-01-12T19:21:29.316Z,6.00
2019-01-12T19:24:38.068Z,6.00
2019-01-12T19:27:10.128Z,4.00
2019-01-12T19:29:41.454Z,6.00
2019-01-12T19:32:43.572Z,6.00
2019-01-12T19:35:33.697Z,4.00
2019-01-12T19:37:55.614Z,6.00
2019-01-12T19:40:30.004Z,4.00
2019-01-12T19:43:02.204Z,4.00
2019-01-12T19:45:34.271Z,4.25
2019-01-12T19:48:05.390Z,3.33
2019-01-12T19:50:56.273Z,3.25
2019-01-12T19:53:47.130Z,2.75
2019-01-12T19:56:19.034Z,3.00
2019-01-12T19:58:51.036Z,3.40
2019-01-12T20:01:22.784Z,3.33
2019-01-12T20:10:11.824Z,8.00
2019-01-12T20:15:34.655Z,8.00
2019-01-12T20:18:04.846Z,4.67
2019-01-12T20:20:35.085Z,8.00
2019-01-12T20:23:06.194Z,6.67
2019-01-12T20:25:37.299Z,7.33
2019-01-12T20:31:26.357Z,6.00
2019-01-12T20:34:35.533Z,3.67
2019-01-12T20:37:45.420Z,3.00
2019-01-12T20:40:59.061Z,6.50
2019-01-12T20:47:36.705Z,4.00
2019-01-12T20:50:47.032Z,3.33
2019-01-12T20:53:44.439Z,4.00
2019-01-12T20:56:54.279Z,4.00
2019-01-12T21:00:05.763Z,4.00
2019-01-12T21:03:15.644Z,2.50
2019-01-12T21:06:24.925Z,4.00
2019-01-12T21:09:36.384Z,4.00
2019-01-12T21:12:45.439Z,3.33
2019-01-12T21:15:54.685Z,6.00
2019-01-12T21:18:43.834Z,5.33
2019-01-12T21:21:15.786Z,4.40
2019-01-12T21:23:48.214Z,4.00
2019-01-12T21:26:37.379Z,10.33
2019-01-12T21:29:09.391Z,9.33
2019-01-12T21:31:39.686Z,10.33
2019-01-12T21:34:41.005Z,21.67
2019-01-12T21:37:02.838Z,15.67
2019-01-12T21:39:33.164Z,10.33
2019-01-12T21:42:05.246Z,7.00
2019-01-12T21:44:36.406Z,7.00
2019-01-12T21:47:26.444Z,5.33
2019-01-12T21:52:48.282Z,7.67
2019-01-12T21:55:18.567Z,11.67
2019-01-12T21:58:09.557Z,8.33
2019-01-12T22:07:41.043Z,1.33
2019-01-12T22:16:45.564Z,0.00
2019-01-12T22:19:16.730Z,0.00
2019-01-12T22:21:47.858Z,0.00
2019-01-12T22:24:37.980Z,0.00
2019-01-12T22:27:09.104Z,0.00
2019-01-12T22:29:49.605Z,0.00
2019-01-12T22:35:21.740Z,0.00
2019-01-12T22:38:15.501Z,0.00
2019-01-12T22:40:46.696Z,0.00
2019-01-12T22:46:24.233Z,2.00
2019-01-12T22:49:14.376Z,0.00
2019-01-12T22:52:26.151Z,0.67
2019-01-12T22:55:17.158Z,0.80
2019-01-12T22:57:49.159Z,0.80
2019-01-12T23:03:31.782Z,0.80
2019-01-12T23:06:02.998Z,0.00
2019-01-12T23:08:53.361Z,0.67
2019-01-12T23:11:55.472Z,2.00
2019-01-12T23:14:46.473Z,1.20
2019-01-12T23:17:37.429Z,2.00
2019-01-12T23:20:27.558Z,0.00
2019-01-12T23:23:17.671Z,0.67
2019-01-12T23:26:10.891Z,0.80
2019-01-12T23:34:16.100Z,2.00
2019-01-12T23:36:47.238Z,1.00
2019-01-12T23:39:22.115Z,1.00
2019-01-12T23:42:12.200Z,1.33
2019-01-12T23:44:43.458Z,1.33
2019-01-12T23:47:14.632Z,2.33
2019-01-12T23:50:04.690Z,0.67
2019-01-12T23:58:42.725Z,1.00
